Time;durP1;ratioP1;P1;durP2;ratioP2;P2;SDS_P1;SDS_P2;PMS_P1;PMS_P2;Temp;Humidity;BMP_temperature;BMP_pressure;BME280_temperature;BME280_humidity;BME280_pressure;Samples;Min_cycle;Max_cycle;Signal;HPM_P1;HPM_P2
2021/03/08 00:00:27;;;;;;;0.70;0.70;;;-4.30;89.80;;;;;;5021850;28;20437;-77
2021/03/08 00:02:54;;;;;;;3.63;3.30;;;-4.30;90.30;;;;;;5014110;28;20034;-75
2021/03/08 00:05:21;;;;;;;2.55;1.30;;;-4.40;90.00;;;;;;5014484;28;20017;-75
2021/03/08 00:07:47;;;;;;;3.38;1.73;;;-4.40;89.90;;;;;;5030967;28;20383;-74
2021/03/08 00:10:15;;;;;;;2.58;1.35;;;-4.50;90.00;;;;;;5032202;28;20021;-77
2021/03/08 00:12:46;;;;;;;1.85;1.27;;;-4.50;90.30;;;;;;5014107;28;20112;-75
2021/03/08 00:15:13;;;;;;;5.25;1.35;;;-4.60;90.00;;;;;;5032517;28;20044;-76
2021/03/08 00:17:39;;;;;;;3.05;1.42;;;-4.60;89.80;;;;;;5014193;28;20045;-75
2021/03/08 00:20:09;;;;;;;2.28;1.30;;;-4.70;89.60;;;;;;5032007;28;20017;-75
2021/03/08 00:22:36;;;;;;;2.45;1.40;;;-4.70;89.60;;;;;;5014048;28;20098;-75
2021/03/08 00:25:04;;;;;;;3.35;1.63;;;-4.70;89.60;;;;;;5032297;28;20026;-74
2021/03/08 00:27:30;;;;;;;3.45;1.63;;;-4.70;89.30;;;;;;5033989;28;20021;-75
2021/03/08 00:29:56;;;;;;;4.03;1.30;;;-4.70;88.80;;;;;;5020260;28;20051;-76
2021/03/08 00:32:22;;;;;;;4.07;1.08;;;-4.80;88.60;;;;;;5016686;28;20061;-73
2021/03/08 00:34:48;;;;;;;3.15;1.70;;;-4.80;89.00;;;;;;5031398;28;20029;-74
2021/03/08 00:37:14;;;;;;;2.05;1.20;;;-4.80;89.20;;;;;;5031824;28;20025;-75
2021/03/08 00:39:41;;;;;;;1.63;1.08;;;-4.80;89.00;;;;;;5034897;28;20024;-75
2021/03/08 00:42:07;;;;;;;3.40;1.70;;;-4.90;88.90;;;;;;5035313;28;20441;-74
2021/03/08 00:44:33;;;;;;;2.17;1.30;;;-4.90;88.40;;;;;;5017524;28;20104;-76
2021/03/08 00:46:59;;;;;;;2.70;1.40;;;-4.80;88.30;;;;;;5017329;28;20137;-76
2021/03/08 00:49:25;;;;;;;2.13;1.30;;;-4.80;88.20;;;;;;5035506;28;20030;-75
2021/03/08 00:51:51;;;;;;;3.75;1.30;;;-4.70;87.90;;;;;;5034913;28;20028;-74
2021/03/08 00:54:17;;;;;;;3.25;1.45;;;-4.70;87.10;;;;;;5035034;28;20018;-75
2021/03/08 00:56:42;;;;;;;1.77;1.42;;;-4.70;87.20;;;;;;5017222;28;20112;-73
2021/03/08 00:59:08;;;;;;;2.20;1.42;;;-4.70;87.50;;;;;;5034480;28;20118;-74
2021/03/08 01:01:35;;;;;;;2.53;1.60;;;-4.60;87.50;;;;;;5034855;28;20056;-74
2021/03/08 01:04:01;;;;;;;3.67;1.35;;;-4.60;87.00;;;;;;5017017;28;20799;-73
2021/03/08 01:06:27;;;;;;;2.47;1.50;;;-4.60;87.30;;;;;;5034515;28;20029;-74
2021/03/08 01:08:53;;;;;;;2.13;1.42;;;-4.60;87.50;;;;;;5034533;28;20060;-75
2021/03/08 01:11:18;;;;;;;3.10;0.55;;;-4.60;87.00;;;;;;5034811;28;20067;-74
2021/03/08 01:13:44;;;;;;;1.88;1.10;;;-4.60;86.80;;;;;;5034591;28;20029;-74
2021/03/08 01:16:10;;;;;;;2.20;1.20;;;-4.60;87.10;;;;;;5030834;28;20092;-74
2021/03/08 01:18:36;;;;;;;2.60;1.45;;;-4.70;86.30;;;;;;5034619;28;20381;-76
2021/03/08 01:21:02;;;;;;;2.55;1.20;;;-4.70;86.20;;;;;;5034598;28;20068;-74
2021/03/08 01:23:28;;;;;;;1.92;0.95;;;-4.70;86.20;;;;;;5034495;28;20036;-76
2021/03/08 01:25:54;;;;;;;2.28;1.00;;;-4.80;85.70;;;;;;5034758;28;20033;-75
2021/03/08 01:28:20;;;;;;;3.97;0.90;;;-4.80;85.90;;;;;;5034696;28;20040;-74
2021/03/08 01:30:46;;;;;;;2.72;1.40;;;-4.80;86.10;;;;;;5034458;28;20045;-75
2021/03/08 01:33:12;;;;;;;3.30;0.90;;;-4.80;85.60;;;;;;5034341;28;20482;-73
2021/03/08 01:35:39;;;;;;;1.10;0.77;;;-4.80;85.20;;;;;;5028365;28;20485;-74
2021/03/08 01:38:05;;;;;;;3.67;1.00;;;-4.80;86.00;;;;;;5025866;28;20021;-75
2021/03/08 01:40:33;;;;;;;1.80;0.90;;;-4.80;86.70;;;;;;5015877;28;20108;-75
2021/03/08 01:42:59;;;;;;;4.40;1.30;;;-4.80;86.00;;;;;;5016476;28;20034;-74
2021/03/08 01:45:25;;;;;;;5.20;1.33;;;-4.80;85.60;;;;;;5034203;28;20040;-76
2021/03/08 01:47:51;;;;;;;1.65;1.27;;;-4.80;85.30;;;;;;5034399;28;20037;-74
2021/03/08 01:50:29;;;;;;;0.90;0.90;;;-4.80;85.10;;;;;;5033674;28;20018;-74
2021/03/08 01:52:55;;;;;;;;;;;-4.70;85.30;;;;;;5035039;28;20022;-74
2021/03/08 01:55:22;;;;;;;4.20;1.17;;;-4.70;85.50;;;;;;5016300;28;19959;-76
2021/03/08 01:57:49;;;;;;;2.03;1.00;;;-4.70;85.50;;;;;;5034346;28;20409;-74
2021/03/08 02:00:16;;;;;;;7.82;1.65;;;-4.70;85.80;;;;;;5034620;28;20043;-73
2021/03/08 02:02:43;;;;;;;3.65;1.15;;;-4.70;86.80;;;;;;5034451;28;20096;-75
2021/03/08 02:05:13;;;;;;;3.35;1.38;;;-4.70;86.70;;;;;;5031711;28;20414;-74
2021/03/08 02:07:39;;;;;;;3.05;1.25;;;-4.70;86.40;;;;;;5031121;28;20057;-75
2021/03/08 02:10:07;;;;;;;3.25;1.35;;;-4.70;86.60;;;;;;5032866;28;20033;-73
2021/03/08 02:12:48;;;;;;;2.28;1.40;;;-4.70;87.10;;;;;;5035109;28;20029;-74
2021/03/08 02:15:23;;;;;;;1.33;0.80;;;-4.70;87.30;;;;;;5036707;28;20104;-76
2021/03/08 02:18:12;;;;;;;1.48;0.90;;;-4.70;88.10;;;;;;5034219;28;20426;-74
2021/03/08 02:20:55;;;;;;;7.07;1.05;;;-4.70;88.60;;;;;;5033731;28;20028;-74
2021/03/08 02:23:42;;;;;;;1.73;1.10;;;-4.80;89.40;;;;;;5021311;28;20076;-75
2021/03/08 02:26:26;;;;;;;2.17;1.27;;;-4.90;89.60;;;;;;5033272;28;20053;-76
2021/03/08 02:29:08;;;;;;;1.27;1.00;;;-4.80;89.20;;;;;;5033778;28;20391;-75
2021/03/08 02:31:34;;;;;;;1.30;1.00;;;-4.80;89.00;;;;;;5031601;28;20022;-74
2021/03/08 02:34:10;;;;;;;1.73;0.98;;;-4.90;89.10;;;;;;5022816;28;20018;-74
2021/03/08 02:36:40;;;;;;;1.50;1.00;;;-4.80;89.60;;;;;;5032030;28;20013;-74
2021/03/08 02:39:13;;;;;;;2.33;1.00;;;-4.90;89.60;;;;;;5033370;28;20025;-75
2021/03/08 02:41:42;;;;;;;1.25;1.02;;;-4.80;89.30;;;;;;5032861;28;20094;-74
2021/03/08 02:44:13;;;;;;;4.03;1.63;;;-4.80;89.30;;;;;;5033154;28;20022;-74
2021/03/08 02:46:42;;;;;;;6.07;1.35;;;-4.80;89.20;;;;;;5032564;28;20033;-74
2021/03/08 02:49:15;;;;;;;4.88;0.82;;;-4.80;88.90;;;;;;5032905;28;20022;-74
2021/03/08 02:51:59;;;;;;;2.40;1.20;;;-4.70;89.10;;;;;;5028782;28;20022;-74
2021/03/08 02:54:30;;;;;;;1.13;1.00;;;-4.70;90.00;;;;;;5032980;28;20029;-74
2021/03/08 02:57:02;;;;;;;2.35;1.10;;;-4.70;89.90;;;;;;5032769;28;20028;-73
2021/03/08 02:59:31;;;;;;;2.72;1.10;;;-4.70;89.60;;;;;;5042379;28;20032;-75
2021/03/08 03:01:59;;;;;;;3.50;1.27;;;-4.70;89.20;;;;;;5071232;28;20041;-74
2021/03/08 03:04:25;;;;;;;4.35;0.90;;;-4.70;88.60;;;;;;5064372;28;20096;-74
2021/03/08 03:06:52;;;;;;;3.70;1.25;;;-4.70;88.30;;;;;;5064682;28;20028;-73
2021/03/08 03:09:21;;;;;;;2.15;1.20;;;-4.70;88.60;;;;;;5068839;28;20088;-74
2021/03/08 03:11:52;;;;;;;2.80;1.08;;;-4.70;88.60;;;;;;5042038;28;20021;-74
2021/03/08 03:14:20;;;;;;;1.10;1.00;;;-4.60;88.30;;;;;;5037521;28;20021;-76
2021/03/08 03:16:47;;;;;;;2.15;1.23;;;-4.60;87.40;;;;;;5062590;28;20028;-74
2021/03/08 03:19:18;;;;;;;2.60;1.00;;;-4.60;86.30;;;;;;5064775;28;20027;-74
2021/03/08 03:21:45;;;;;;;3.10;1.02;;;-4.60;85.60;;;;;;5042223;28;20458;-74
2021/03/08 03:24:11;;;;;;;;;;;-4.60;85.80;;;;;;5063287;28;20017;-74
2021/03/08 03:26:40;;;;;;;0.97;0.77;;;-4.60;85.50;;;;;;5043789;28;19911;-75
2021/03/08 03:29:09;;;;;;;1.65;0.95;;;-4.60;85.30;;;;;;5062000;28;20024;-77
2021/03/08 03:31:40;;;;;;;0.45;0.45;;;-4.60;84.80;;;;;;5034771;28;20032;-76
2021/03/08 03:34:08;;;;;;;1.73;1.02;;;-4.50;85.10;;;;;;5034621;28;20013;-75
2021/03/08 03:36:38;;;;;;;1.77;1.05;;;-4.50;85.00;;;;;;5034515;28;20114;-76
2021/03/08 03:39:09;;;;;;;1.73;1.15;;;-4.50;85.90;;;;;;5052133;28;20021;-76
2021/03/08 03:41:35;;;;;;;2.15;1.13;;;-4.50;87.30;;;;;;5064099;28;20485;-75
2021/03/08 03:44:02;;;;;;;8.30;1.00;;;-4.50;88.10;;;;;;5064849;28;20036;-76
2021/03/08 03:46:28;;;;;;;0.75;0.75;;;-4.50;88.20;;;;;;5035764;28;20028;-76
2021/03/08 03:48:54;;;;;;;0.77;0.73;;;-4.60;88.20;;;;;;5064077;28;20036;-75
2021/03/08 03:51:20;;;;;;;1.40;0.80;;;-4.60;88.50;;;;;;5034041;28;20025;-74
2021/03/08 03:53:47;;;;;;;2.33;1.27;;;-4.60;88.60;;;;;;5057776;28;20021;-75
2021/03/08 03:56:15;;;;;;;2.55;0.95;;;-4.60;88.70;;;;;;5057633;28;20427;-75
2021/03/08 03:59:27;;;;;;;0.65;0.65;;;-4.60;88.70;;;;;;5046730;28;20076;-74
2021/03/08 04:01:53;;;;;;;1.85;1.15;;;-4.60;88.60;;;;;;5035364;28;20038;-74
2021/03/08 04:04:29;;;;;;;1.45;1.08;;;-4.60;89.40;;;;;;5031134;28;20028;-76
2021/03/08 04:06:57;;;;;;;1.70;0.90;;;-4.70;89.70;;;;;;5032304;28;20049;-73
2021/03/08 04:09:24;;;;;;;1.15;1.00;;;-4.70;89.70;;;;;;5030872;28;20037;-73
2021/03/08 04:11:53;;;;;;;0.60;0.60;;;-4.70;90.10;;;;;;5032426;28;20036;-74
2021/03/08 04:14:22;;;;;;;1.40;1.20;;;-4.80;90.20;;;;;;5035324;28;20442;-74
2021/03/08 04:16:55;;;;;;;2.20;0.95;;;-4.70;90.20;;;;;;5034716;28;20021;-76
2021/03/08 04:19:24;;;;;;;1.95;1.17;;;-4.80;90.00;;;;;;5035852;28;20028;-74
2021/03/08 04:21:54;;;;;;;0.85;0.85;;;-4.80;89.70;;;;;;5035796;28;20041;-74
2021/03/08 04:24:20;;;;;;;1.33;1.05;;;-4.80;89.50;;;;;;5036073;28;20052;-74
2021/03/08 04:26:49;;;;;;;2.28;1.17;;;-4.70;89.60;;;;;;5034422;28;20479;-74
2021/03/08 04:29:18;;;;;;;0.98;0.90;;;-4.70;89.20;;;;;;5035679;28;20036;-74
2021/03/08 04:31:44;;;;;;;1.73;1.00;;;-4.70;88.80;;;;;;5035695;28;20444;-76
2021/03/08 04:34:11;;;;;;;1.25;1.10;;;-4.80;89.10;;;;;;5034178;28;20013;-75
2021/03/08 04:36:38;;;;;;;1.25;1.15;;;-4.80;89.10;;;;;;5035361;28;20033;-73
2021/03/08 04:39:05;;;;;;;2.40;1.75;;;-4.80;89.10;;;;;;5035791;28;20040;-74
2021/03/08 04:41:31;;;;;;;1.23;0.97;;;-4.80;88.90;;;;;;5035449;28;20498;-74
2021/03/08 04:44:01;;;;;;;4.53;1.87;;;-4.80;88.90;;;;;;5035608;28;20411;-74
2021/03/08 04:46:28;;;;;;;0.73;0.70;;;-4.80;88.80;;;;;;5035247;28;20041;-75
2021/03/08 04:48:54;;;;;;;2.40;0.70;;;-4.70;88.90;;;;;;5035190;28;20521;-76
2021/03/08 04:51:20;;;;;;;1.10;0.73;;;-4.70;88.40;;;;;;5035364;28;20026;-74
2021/03/08 04:53:47;;;;;;;0.80;0.75;;;-4.70;88.30;;;;;;5035006;28;20132;-74
2021/03/08 04:56:15;;;;;;;1.17;0.95;;;-4.70;88.30;;;;;;5035310;28;20025;-73
2021/03/08 04:58:41;;;;;;;2.65;0.90;;;-4.70;88.10;;;;;;5044346;28;20410;-74
2021/03/08 05:01:10;;;;;;;1.55;0.95;;;-4.70;88.20;;;;;;5048295;28;20032;-74
2021/03/08 05:03:37;;;;;;;2.35;1.30;;;-4.70;88.30;;;;;;5036432;28;20409;-75
2021/03/08 05:06:04;;;;;;;;;;;-4.60;88.50;;;;;;5070589;28;20075;-76
2021/03/08 05:08:30;;;;;;;;;;;-4.60;88.30;;;;;;5070536;28;19910;-77
2021/03/08 05:10:57;;;;;;;1.80;0.90;;;-4.60;88.40;;;;;;5065073;28;19905;-75
2021/03/08 05:13:24;;;;;;;;;;;-4.60;88.70;;;;;;5037293;28;20569;-72
2021/03/08 05:15:53;;;;;;;1.50;0.98;;;-4.60;88.40;;;;;;5065481;28;19996;-76
2021/03/08 05:18:22;;;;;;;1.88;1.00;;;-4.60;88.10;;;;;;5069640;28;20466;-74
2021/03/08 05:20:49;;;;;;;1.73;1.27;;;-4.60;87.90;;;;;;5061586;28;20025;-73
2021/03/08 05:23:15;;;;;;;1.40;1.30;;;-4.50;88.20;;;;;;5029211;28;20091;-74
2021/03/08 05:25:42;;;;;;;0.98;0.90;;;-4.50;88.40;;;;;;5061031;28;20504;-77
2021/03/08 05:28:10;;;;;;;2.75;1.00;;;-4.50;87.70;;;;;;5061707;28;20021;-75
2021/03/08 05:30:38;;;;;;;0.80;0.80;;;-4.40;87.50;;;;;;5061016;28;20048;-75
2021/03/08 05:33:23;;;;;;;1.10;1.00;;;-4.40;87.30;;;;;;5061189;28;20029;-76
2021/03/08 05:35:55;;;;;;;2.05;1.08;;;-4.40;88.00;;;;;;5052590;28;20079;-75
2021/03/08 05:38:24;;;;;;;0.95;0.80;;;-4.40;87.30;;;;;;5035862;28;20541;-74
2021/03/08 05:41:02;;;;;;;1.85;1.10;;;-4.40;87.60;;;;;;5037006;28;20033;-77
2021/03/08 05:43:32;;;;;;;2.58;1.08;;;-4.30;87.20;;;;;;5059138;28;20449;-76
2021/03/08 05:46:11;;;;;;;0.90;0.90;;;-4.40;87.40;;;;;;5049183;28;20102;-75
2021/03/08 05:49:04;;;;;;;0.68;0.68;;;-4.30;87.60;;;;;;5048571;28;20104;-75
2021/03/08 05:51:45;;;;;;;1.85;1.15;;;-4.30;87.50;;;;;;5039929;28;20053;-75
2021/03/08 05:54:26;;;;;;;2.70;1.73;;;-4.30;86.70;;;;;;5059189;28;20016;-75
2021/03/08 05:57:05;;;;;;;1.75;1.17;;;-4.30;86.90;;;;;;5060521;28;20021;-76
2021/03/08 05:59:35;;;;;;;1.92;1.30;;;-4.30;87.10;;;;;;5025421;28;20041;-76
2021/03/08 06:02:29;;;;;;;1.75;1.35;;;-4.30;86.50;;;;;;5034373;28;20120;-75
2021/03/08 06:05:16;;;;;;;2.30;1.35;;;-4.20;86.80;;;;;;5023958;28;20017;-76
2021/03/08 06:08:19;;;;;;;1.42;1.10;;;-4.20;85.90;;;;;;5033834;28;20021;-74
2021/03/08 06:11:10;;;;;;;1.30;1.00;;;-4.20;84.60;;;;;;5033550;28;20429;-75
2021/03/08 06:13:54;;;;;;;2.67;1.25;;;-4.30;83.60;;;;;;5033733;28;20021;-76
2021/03/08 06:16:32;;;;;;;4.63;2.08;;;-4.30;83.90;;;;;;5033762;28;20432;-76
2021/03/08 06:19:01;;;;;;;3.58;1.95;;;-4.30;82.10;;;;;;5033756;28;20050;-75
2021/03/08 06:21:27;;;;;;;4.10;1.70;;;-4.30;83.50;;;;;;5033594;28;20071;-76
2021/03/08 06:23:54;;;;;;;1.33;1.23;;;-4.30;84.10;;;;;;5032383;28;20039;-75
2021/03/08 06:26:21;;;;;;;2.33;1.60;;;-4.30;83.30;;;;;;5033695;28;20021;-73
2021/03/08 06:28:47;;;;;;;3.88;1.88;;;-4.30;82.10;;;;;;5034116;28;20297;-75
2021/03/08 06:31:14;;;;;;;1.63;1.10;;;-4.30;81.90;;;;;;5031825;28;20021;-75
2021/03/08 06:33:40;;;;;;;3.90;2.05;;;-4.30;81.90;;;;;;5033826;28;20052;-75
2021/03/08 06:36:08;;;;;;;2.92;1.48;;;-4.30;80.60;;;;;;5033481;28;20069;-73
2021/03/08 06:38:33;;;;;;;14.13;2.03;;;-4.40;79.20;;;;;;5033824;28;20060;-75
2021/03/08 06:41:00;;;;;;;3.90;1.65;;;-4.40;80.70;;;;;;5033713;28;20030;-74
2021/03/08 06:43:29;;;;;;;3.38;1.20;;;-4.40;80.90;;;;;;5033350;28;20029;-75
2021/03/08 06:45:56;;;;;;;2.40;1.20;;;-4.40;81.10;;;;;;5033948;28;20414;-76
2021/03/08 06:48:22;;;;;;;3.20;2.00;;;-4.50;79.30;;;;;;5033527;28;20021;-75
2021/03/08 06:51:09;;;;;;;2.42;1.45;;;-4.50;79.80;;;;;;5033274;28;20021;-74
2021/03/08 06:53:35;;;;;;;;;;;-4.50;79.90;;;;;;5032565;28;20064;-75
2021/03/08 06:56:15;;;;;;;3.47;1.38;;;-4.60;79.30;;;;;;5015184;28;20279;-74
2021/03/08 06:58:41;;;;;;;3.22;1.67;;;-4.60;80.50;;;;;;5045034;28;20401;-75
2021/03/08 07:01:39;;;;;;;2.10;1.33;;;-4.50;80.80;;;;;;5027744;28;20143;-75
2021/03/08 07:04:18;;;;;;;5.57;1.60;;;-4.40;81.10;;;;;;5035006;28;20117;-75
2021/03/08 07:07:04;;;;;;;3.45;1.67;;;-4.40;80.00;;;;;;5033000;28;20021;-75
2021/03/08 07:09:32;;;;;;;2.15;1.77;;;-4.40;80.10;;;;;;5053816;28;20388;-76
2021/03/08 07:12:11;;;;;;;2.30;1.20;;;-4.40;80.50;;;;;;5062601;28;20036;-77
2021/03/08 07:14:38;;;;;;;5.57;2.50;;;-4.30;79.80;;;;;;5058554;28;20093;-76
2021/03/08 07:17:38;;;;;;;5.22;1.88;;;-4.20;78.30;;;;;;5065039;28;20063;-75
2021/03/08 07:20:08;;;;;;;2.58;1.65;;;-4.20;78.80;;;;;;5046523;28;20033;-75
2021/03/08 07:22:37;;;;;;;4.38;1.65;;;-4.20;79.40;;;;;;5048885;28;20511;-75
2021/03/08 07:25:06;;;;;;;8.15;2.40;;;-4.20;80.20;;;;;;5066578;28;20468;-75
2021/03/08 07:27:43;;;;;;;2.92;1.55;;;-4.10;80.60;;;;;;5059776;28;20473;-76
2021/03/08 07:30:12;;;;;;;2.05;1.50;;;-4.00;80.80;;;;;;5065629;28;20101;-75
2021/03/08 07:32:58;;;;;;;5.13;1.67;;;-4.10;80.00;;;;;;5060920;28;20048;-80
2021/03/08 07:35:46;;;;;;;2.78;1.48;;;-4.10;80.90;;;;;;5063831;28;20024;-75
2021/03/08 07:38:14;;;;;;;2.58;1.88;;;-3.90;81.30;;;;;;5058347;28;20491;-77
2021/03/08 07:40:44;;;;;;;2.78;1.90;;;-3.80;80.60;;;;;;5058949;28;20017;-78
2021/03/08 07:43:28;;;;;;;3.33;1.90;;;-3.70;80.30;;;;;;5061423;28;20029;-78
2021/03/08 07:45:53;;;;;;;2.80;1.77;;;-3.60;80.20;;;;;;5057404;28;20165;-77
2021/03/08 07:48:20;;;;;;;3.13;1.98;;;-3.50;78.80;;;;;;5057077;28;20025;-75
2021/03/08 07:50:48;;;;;;;3.58;1.92;;;-3.40;79.60;;;;;;5034206;28;20040;-79
2021/03/08 07:53:28;;;;;;;3.80;2.10;;;-3.20;78.80;;;;;;5056517;28;20090;-80
2021/03/08 07:55:55;;;;;;;2.45;1.75;;;-3.10;75.70;;;;;;5062442;28;20024;-80
2021/03/08 07:58:21;;;;;;;;;;;-3.10;75.40;;;;;;5064652;28;20090;-79
2021/03/08 08:00:47;;;;;;;2.90;1.50;;;-3.10;76.60;;;;;;5065130;28;19940;-76
2021/03/08 08:03:13;;;;;;;4.18;2.03;;;-3.20;74.30;;;;;;5062018;28;20040;-77
2021/03/08 08:05:39;;;;;;;1.52;1.25;;;-3.20;75.70;;;;;;5076047;28;20039;-78
2021/03/08 08:08:08;;;;;;;5.05;2.10;;;-3.20;75.90;;;;;;5072670;28;20016;-78
2021/03/08 08:10:34;;;;;;;3.22;1.80;;;-3.10;73.40;;;;;;5064484;28;20037;-78
2021/03/08 08:13:02;;;;;;;3.13;2.00;;;-3.20;73.10;;;;;;5060993;28;20025;-79
2021/03/08 08:15:34;;;;;;;3.25;1.95;;;-3.20;72.50;;;;;;5055390;28;20099;-77
2021/03/08 08:18:00;;;;;;;4.60;2.50;;;-3.20;72.40;;;;;;5059419;28;20025;-78
2021/03/08 08:20:29;;;;;;;11.18;2.28;;;-3.30;72.70;;;;;;5033745;28;20036;-78
2021/03/08 08:22:59;;;;;;;2.38;1.88;;;-3.30;72.30;;;;;;5058476;28;20029;-78
2021/03/08 08:25:26;;;;;;;1.45;1.02;;;-3.30;72.50;;;;;;5058184;28;20388;-81
2021/03/08 08:27:52;;;;;;;;;;;-3.30;71.70;;;;;;5060978;28;20107;-80
2021/03/08 08:30:23;;;;;;;2.67;1.67;;;-3.40;72.10;;;;;;5053899;28;19952;-80
2021/03/08 08:32:56;;;;;;;1.75;1.60;;;-3.40;71.70;;;;;;5058224;28;20017;-80
2021/03/08 08:35:25;;;;;;;1.98;1.35;;;-3.40;71.10;;;;;;5058572;28;20013;-81
2021/03/08 08:38:20;;;;;;;3.25;1.98;;;-3.40;70.50;;;;;;5055891;28;20493;-79
2021/03/08 08:40:46;;;;;;;1.35;1.23;;;-3.40;73.90;;;;;;5042571;28;20538;-79
2021/03/08 08:43:15;;;;;;;3.22;1.73;;;-3.40;73.70;;;;;;5058032;28;20039;-79
2021/03/08 08:45:52;;;;;;;3.10;1.67;;;-3.30;72.50;;;;;;5023180;28;20116;-80
2021/03/08 08:48:22;;;;;;;;;;;-3.30;72.60;;;;;;5054370;28;20158;-77
2021/03/08 08:50:55;;;;;;;5.40;2.22;;;-3.20;71.30;;;;;;5053617;28;19931;-80
2021/03/08 08:53:39;;;;;;;2.25;1.90;;;-3.30;72.60;;;;;;5053846;28;20393;-79
2021/03/08 08:56:06;;;;;;;3.70;2.38;;;-3.30;72.80;;;;;;5046701;28;20029;-81
2021/03/08 08:58:41;;;;;;;2.55;1.55;;;-3.20;73.20;;;;;;5070621;28;20048;-80
2021/03/08 09:01:11;;;;;;;4.03;1.33;;;-3.20;73.70;;;;;;5060250;28;20020;-81
2021/03/08 09:04:01;;;;;;;4.85;1.75;;;-3.10;71.70;;;;;;5057548;28;20044;-82
2021/03/08 09:06:56;;;;;;;3.33;1.92;;;-3.10;69.60;;;;;;5025459;28;20033;-81
2021/03/08 09:09:33;;;;;;;4.38;2.33;;;-3.20;67.90;;;;;;5065618;28;20064;-81
2021/03/08 09:12:07;;;;;;;2.75;1.52;;;-3.20;69.60;;;;;;5054330;28;20025;-81
2021/03/08 09:14:52;;;;;;;2.97;1.90;;;-3.20;69.10;;;;;;5037254;28;20071;-82
2021/03/08 09:17:31;;;;;;;4.30;1.80;;;-3.20;70.10;;;;;;5065483;28;20551;-82
2021/03/08 09:19:57;;;;;;;3.72;2.00;;;-3.10;71.70;;;;;;5023937;28;20048;-79
2021/03/08 09:22:26;;;;;;;4.22;2.13;;;-3.10;73.20;;;;;;5025896;28;20068;-82
2021/03/08 09:25:13;;;;;;;3.33;2.40;;;-3.00;72.90;;;;;;5031027;28;20021;-79
2021/03/08 09:27:43;;;;;;;3.00;1.73;;;-3.00;73.20;;;;;;5043833;28;20032;-84
2021/03/08 09:30:22;;;;;;;5.47;2.20;;;-3.10;74.50;;;;;;5046767;28;20155;-84
2021/03/08 09:32:58;;;;;;;4.93;1.77;;;-3.10;74.30;;;;;;5066585;28;20104;-82
2021/03/08 09:35:30;;;;;;;3.75;2.20;;;-3.20;70.80;;;;;;5052870;28;20082;-83
2021/03/08 09:37:59;;;;;;;2.80;1.90;;;-3.30;72.80;;;;;;5067711;28;20043;-83
2021/03/08 09:40:34;;;;;;;2.70;1.35;;;-3.30;71.10;;;;;;5062247;28;20100;-82
2021/03/08 09:43:00;;;;;;;3.85;2.20;;;-3.30;71.50;;;;;;5049781;28;20092;-82
2021/03/08 09:45:31;;;;;;;2.55;2.20;;;-3.30;71.30;;;;;;5056345;28;20021;-82
2021/03/08 09:47:59;;;;;;;6.47;1.88;;;-3.10;71.40;;;;;;5048363;28;20033;-84
2021/03/08 09:50:32;;;;;;;3.63;2.05;;;-3.10;71.10;;;;;;5063010;28;20419;-82
2021/03/08 09:52:59;;;;;;;6.72;2.00;;;-3.00;71.00;;;;;;5051187;28;20030;-83
2021/03/08 09:55:35;;;;;;;2.22;1.67;;;-3.00;72.10;;;;;;5048730;28;20111;-76
2021/03/08 09:58:13;;;;;;;2.80;1.88;;;-3.00;72.90;;;;;;5037528;28;20053;-78
2021/03/08 10:00:40;;;;;;;2.63;1.77;;;-2.90;73.70;;;;;;5050429;28;20017;-78
2021/03/08 10:03:08;;;;;;;2.83;2.45;;;-3.00;72.30;;;;;;5053925;28;20028;-78
2021/03/08 10:05:54;;;;;;;3.95;2.95;;;-3.00;72.10;;;;;;5032121;28;20028;-80
2021/03/08 10:08:29;;;;;;;4.95;2.50;;;-3.10;73.00;;;;;;5039473;28;20485;-81
2021/03/08 10:10:55;;;;;;;4.22;2.25;;;-3.10;72.60;;;;;;5034138;28;20056;-83
2021/03/08 10:13:22;;;;;;;2.45;1.60;;;-3.20;74.60;;;;;;5055280;28;20028;-79
2021/03/08 10:15:56;;;;;;;3.20;1.52;;;-3.20;72.70;;;;;;5044462;28;20025;-78
2021/03/08 10:18:29;;;;;;;5.78;2.92;;;-3.20;71.70;;;;;;5049112;28;20037;-81
2021/03/08 10:20:57;;;;;;;2.75;1.80;;;-3.20;72.40;;;;;;5060757;28;20029;-79
2021/03/08 10:23:25;;;;;;;3.03;1.80;;;-3.20;72.10;;;;;;5062727;28;20337;-79
2021/03/08 10:25:51;;;;;;;;;;;-3.30;72.20;;;;;;5054107;28;20029;-78
2021/03/08 10:28:18;;;;;;;2.20;2.00;;;-3.40;72.60;;;;;;5046794;28;19950;-77
2021/03/08 10:30:44;;;;;;;4.20;1.92;;;-3.40;73.50;;;;;;5022924;28;20021;-78
2021/03/08 10:33:10;;;;;;;3.05;2.72;;;-3.40;74.60;;;;;;5051324;28;20095;-78
2021/03/08 10:35:47;;;;;;;4.82;2.33;;;-3.40;73.20;;;;;;5024637;28;20115;-77
2021/03/08 10:38:14;;;;;;;7.22;2.45;;;-3.50;73.70;;;;;;5061941;28;20052;-78
2021/03/08 10:40:42;;;;;;;2.42;1.85;;;-3.50;71.90;;;;;;5044938;28;20034;-77
2021/03/08 10:43:09;;;;;;;6.53;1.98;;;-3.60;72.00;;;;;;5042518;28;20043;-78
2021/03/08 10:45:36;;;;;;;;;;;-3.60;72.30;;;;;;5051936;28;20031;-79
2021/03/08 10:48:12;;;;;;;4.90;2.47;;;-3.70;71.70;;;;;;5048485;28;19913;-79
2021/03/08 10:50:41;;;;;;;3.40;1.45;;;-3.80;70.70;;;;;;5042422;28;20017;-79
2021/03/08 10:53:07;;;;;;;5.75;3.90;;;-3.80;71.70;;;;;;5048547;28;20449;-83
2021/03/08 10:55:33;;;;;;;2.17;1.50;;;-3.80;69.40;;;;;;5068969;28;20384;-81
2021/03/08 10:57:59;;;;;;;2.00;1.40;;;-3.80;70.00;;;;;;5063182;28;20114;-81
2021/03/08 11:00:25;;;;;;;2.10;1.40;;;-3.70;69.00;;;;;;5059246;28;20029;-83
2021/03/08 11:02:51;;;;;;;1.95;1.52;;;-3.60;70.20;;;;;;5066173;28;20074;-79
2021/03/08 11:05:19;;;;;;;1.92;1.30;;;-3.50;70.30;;;;;;5054166;28;20416;-81
2021/03/08 11:07:45;;;;;;;2.08;1.60;;;-3.40;70.00;;;;;;5067597;28;20098;-80
2021/03/08 11:10:11;;;;;;;6.05;2.25;;;-3.40;67.90;;;;;;5065023;28;20484;-74
2021/03/08 11:12:38;;;;;;;3.78;1.40;;;-3.40;67.80;;;;;;5053707;28;20099;-79
2021/03/08 11:15:04;;;;;;;3.08;1.70;;;-3.50;67.60;;;;;;5035557;28;20025;-77
2021/03/08 11:17:39;;;;;;;1.50;1.30;;;-3.50;69.60;;;;;;5045580;28;20044;-79
2021/03/08 11:20:11;;;;;;;2.10;1.30;;;-3.40;70.90;;;;;;5050607;28;20024;-80
2021/03/08 11:22:50;;;;;;;3.15;1.80;;;-3.30;70.50;;;;;;5033588;28;20034;-79
2021/03/08 11:25:41;;;;;;;1.58;1.48;;;-3.30;71.40;;;;;;5045182;28;20025;-80
2021/03/08 11:28:16;;;;;;;3.17;1.52;;;-3.30;71.00;;;;;;5035082;28;20546;-79
2021/03/08 11:30:50;;;;;;;2.85;1.55;;;-3.30;71.90;;;;;;5044805;28;20033;-79
2021/03/08 11:33:17;;;;;;;2.47;1.20;;;-3.30;74.60;;;;;;5051189;28;20021;-82
2021/03/08 11:35:49;;;;;;;2.70;1.30;;;-3.40;75.00;;;;;;5041223;28;20022;-81
2021/03/08 11:38:18;;;;;;;1.75;1.30;;;-3.40;74.60;;;;;;5028142;28;20059;-79
2021/03/08 11:40:46;;;;;;;2.58;1.38;;;-3.40;73.40;;;;;;5045627;28;20031;-79
2021/03/08 11:43:16;;;;;;;2.50;2.30;;;-3.30;73.80;;;;;;5051944;28;20032;-80
2021/03/08 11:45:42;;;;;;;2.50;1.80;;;-3.20;74.40;;;;;;5046783;28;20441;-81
2021/03/08 11:48:08;;;;;;;3.10;1.98;;;-3.00;73.20;;;;;;5040328;28;20113;-79
2021/03/08 11:50:36;;;;;;;2.57;1.70;;;-2.90;71.30;;;;;;5043154;28;20147;-77
2021/03/08 11:53:06;;;;;;;2.70;1.80;;;-2.90;68.90;;;;;;5034522;28;20481;-79
2021/03/08 11:55:32;;;;;;;2.42;1.80;;;-2.90;69.70;;;;;;5066470;28;20031;-79
2021/03/08 11:57:58;;;;;;;3.70;1.85;;;-2.90;69.40;;;;;;5060811;28;20052;-78
2021/03/08 12:00:32;;;;;;;4.32;2.10;;;-3.00;69.50;;;;;;5058313;28;20036;-78
2021/03/08 12:02:58;;;;;;;5.28;2.15;;;-3.00;69.20;;;;;;5064576;28;20029;-78
2021/03/08 12:05:24;;;;;;;4.35;2.00;;;-2.90;68.70;;;;;;5066186;28;20070;-77
2021/03/08 12:07:50;;;;;;;3.05;2.10;;;-2.90;67.00;;;;;;5054997;28;20393;-79
2021/03/08 12:10:16;;;;;;;5.57;2.10;;;-2.80;65.90;;;;;;5051404;28;20016;-80
2021/03/08 12:12:42;;;;;;;7.40;1.75;;;-2.80;66.20;;;;;;5041611;28;20095;-78
2021/03/08 12:15:11;;;;;;;2.50;1.75;;;-2.70;65.70;;;;;;5044381;28;20099;-77
2021/03/08 12:17:38;;;;;;;4.05;2.00;;;-2.80;67.30;;;;;;5056413;28;20021;-78
2021/03/08 12:20:10;;;;;;;3.58;2.05;;;-2.80;66.90;;;;;;5034228;28;20032;-79
2021/03/08 12:22:37;;;;;;;3.17;2.13;;;-2.90;66.50;;;;;;5035486;28;20033;-78
2021/03/08 12:25:04;;;;;;;3.28;1.88;;;-3.00;67.30;;;;;;5046623;28;20356;-79
2021/03/08 12:27:30;;;;;;;3.50;1.33;;;-3.10;69.10;;;;;;5032733;28;20026;-77
2021/03/08 12:29:56;;;;;;;2.85;1.83;;;-3.10;72.60;;;;;;5050969;28;20028;-77
2021/03/08 12:32:22;;;;;;;4.63;4.22;;;-3.10;70.20;;;;;;5056720;28;20049;-78
2021/03/08 12:34:48;;;;;;;2.70;1.95;;;-3.20;70.20;;;;;;5062699;28;20099;-78
2021/03/08 12:37:14;;;;;;;2.42;2.10;;;-3.20;71.30;;;;;;5060237;28;20092;-78
2021/03/08 12:40:17;;;;;;;3.40;2.10;;;-3.20;71.70;;;;;;5049730;28;20121;-76
2021/03/08 12:42:43;;;;;;;3.78;1.60;;;-3.20;71.40;;;;;;5038565;28;20099;-78
2021/03/08 12:45:26;;;;;;;4.35;1.95;;;-3.20;72.80;;;;;;5053168;28;20021;-79
2021/03/08 12:47:57;;;;;;;4.13;1.92;;;-3.20;72.60;;;;;;5058184;28;20163;-78
2021/03/08 12:50:26;;;;;;;2.83;1.90;;;-3.20;73.50;;;;;;5046667;28;20020;-78
2021/03/08 12:53:01;;;;;;;2.72;1.45;;;-3.30;74.40;;;;;;5046118;28;20086;-79
2021/03/08 12:55:29;;;;;;;3.20;2.80;;;-3.30;73.50;;;;;;5061214;28;20110;-79
2021/03/08 12:57:55;;;;;;;2.08;1.63;;;-3.40;73.10;;;;;;5047854;28;20106;-78
2021/03/08 13:00:21;;;;;;;7.00;1.90;;;-3.50;73.00;;;;;;5037434;28;20477;-77
2021/03/08 13:02:47;;;;;;;7.07;1.88;;;-3.60;74.00;;;;;;5062899;28;20025;-79
2021/03/08 13:05:14;;;;;;;5.50;1.98;;;-3.80;75.10;;;;;;5076028;28;20031;-80
2021/03/08 13:07:40;;;;;;;2.95;1.63;;;-4.00;76.20;;;;;;5067141;28;20115;-78